createdAt,value
2023-07-19T00:02:01.932Z,88.10
2023-07-19T00:04:30.739Z,88.90
2023-07-19T00:06:59.603Z,88.70
2023-07-19T00:09:28.508Z,89.20
2023-07-19T00:11:58.873Z,90.00
2023-07-19T00:14:27.776Z,90.30
2023-07-19T00:16:56.771Z,90.50
2023-07-19T00:19:25.729Z,90.40
2023-07-19T00:21:54.914Z,90.40
2023-07-19T00:24:23.724Z,90.50
2023-07-19T00:26:52.502Z,90.80
2023-07-19T00:29:22.900Z,90.90
2023-07-19T00:31:51.792Z,90.90
2023-07-19T00:34:20.727Z,91.10
2023-07-19T00:36:49.559Z,91.30
2023-07-19T00:39:18.704Z,91.60
2023-07-19T00:41:48.014Z,91.90
2023-07-19T00:44:17.825Z,91.90
2023-07-19T00:46:48.370Z,92.10
2023-07-19T00:49:17.805Z,92.40
2023-07-19T00:51:47.048Z,92.40
2023-07-19T00:54:17.074Z,92.70
2023-07-19T00:56:48.312Z,92.90
2023-07-19T00:59:18.093Z,93.10
2023-07-19T01:01:49.163Z,93.20
2023-07-19T01:04:18.340Z,93.30
2023-07-19T01:06:47.417Z,93.50
2023-07-19T01:09:16.686Z,93.80
2023-07-19T01:11:45.511Z,93.90
2023-07-19T01:14:14.632Z,93.90
2023-07-19T01:16:43.700Z,94.10
2023-07-19T01:19:17.277Z,94.10
2023-07-19T01:21:46.304Z,94.30
2023-07-19T01:24:17.458Z,94.40
2023-07-19T01:26:46.337Z,94.80
2023-07-19T01:29:15.105Z,95.00
2023-07-19T01:31:44.277Z,95.10
2023-07-19T01:34:14.418Z,95.20
2023-07-19T01:36:43.147Z,95.30
2023-07-19T01:39:12.141Z,95.60
2023-07-19T01:41:42.671Z,95.80
2023-07-19T01:44:11.584Z,95.70
2023-07-19T01:46:41.159Z,95.60
2023-07-19T01:49:09.861Z,96.10
2023-07-19T01:51:38.512Z,96.00
2023-07-19T01:54:07.391Z,96.10
2023-07-19T01:56:38.228Z,96.10
2023-07-19T01:59:08.528Z,96.20
2023-07-19T02:01:37.222Z,96.40
2023-07-19T02:04:06.443Z,97.00
2023-07-19T02:06:35.287Z,97.90
2023-07-19T02:09:05.223Z,98.60
2023-07-19T02:11:35.869Z,99.10
2023-07-19T02:14:04.748Z,99.50
2023-07-19T02:16:35.031Z,99.50
2023-07-19T02:19:04.481Z,99.80
2023-07-19T02:21:33.400Z,99.90
2023-07-19T02:24:02.368Z,99.90
2023-07-19T02:26:31.047Z,99.90
2023-07-19T02:28:59.796Z,99.90
2023-07-19T02:31:28.494Z,99.90
2023-07-19T02:33:58.931Z,99.90
2023-07-19T02:36:27.738Z,99.90
2023-07-19T02:38:56.536Z,99.90
2023-07-19T02:41:25.482Z,99.90
2023-07-19T02:43:54.308Z,99.90
2023-07-19T02:46:24.846Z,99.90
2023-07-19T02:48:53.560Z,99.90
2023-07-19T02:51:23.934Z,99.90
2023-07-19T02:53:53.030Z,99.90
2023-07-19T02:56:21.698Z,99.90
2023-07-19T02:58:50.754Z,99.90
2023-07-19T03:01:19.991Z,99.90
2023-07-19T03:03:49.233Z,99.90
2023-07-19T03:06:18.508Z,99.90
2023-07-19T03:08:48.883Z,99.90
2023-07-19T03:11:17.741Z,99.90
2023-07-19T03:13:46.687Z,99.90
2023-07-19T03:16:15.915Z,99.90
2023-07-19T03:18:44.869Z,99.90
2023-07-19T03:21:13.786Z,99.90
2023-07-19T03:23:42.643Z,99.90
2023-07-19T03:26:13.008Z,99.90
2023-07-19T03:28:42.172Z,99.90
2023-07-19T03:31:13.574Z,99.90
2023-07-19T03:33:43.380Z,99.90
2023-07-19T03:36:12.533Z,99.90
2023-07-19T03:38:41.212Z,99.90
2023-07-19T03:41:10.870Z,99.90
2023-07-19T03:43:42.622Z,99.90
2023-07-19T03:46:16.186Z,99.90
2023-07-19T03:48:44.974Z,99.90
2023-07-19T03:51:13.862Z,99.90
2023-07-19T03:53:42.861Z,99.90
2023-07-19T03:56:11.764Z,99.90
2023-07-19T03:58:46.575Z,99.90
2023-07-19T04:01:15.585Z,99.90
2023-07-19T04:03:46.764Z,99.90
2023-07-19T04:06:17.869Z,99.90
2023-07-19T04:08:46.983Z,99.90
2023-07-19T04:11:15.744Z,99.90
2023-07-19T04:13:47.725Z,99.90
2023-07-19T04:16:19.018Z,99.90
2023-07-19T04:18:47.919Z,99.90
2023-07-19T04:21:16.718Z,99.90
2023-07-19T04:23:45.495Z,99.90
2023-07-19T04:26:14.424Z,99.90
2023-07-19T04:28:43.415Z,99.90
2023-07-19T04:31:13.604Z,99.90
2023-07-19T04:33:43.514Z,99.90
2023-07-19T04:36:14.519Z,99.90
2023-07-19T04:38:45.264Z,99.90
2023-07-19T04:41:14.188Z,99.90
2023-07-19T04:43:43.069Z,99.90
2023-07-19T04:46:13.329Z,99.90
2023-07-19T04:48:43.218Z,99.90
2023-07-19T04:51:12.053Z,99.90
2023-07-19T04:53:40.799Z,99.90
2023-07-19T04:56:09.649Z,99.90
2023-07-19T04:58:38.346Z,99.90
2023-07-19T05:01:09.938Z,99.90
2023-07-19T05:03:42.271Z,99.10
2023-07-19T05:06:11.186Z,98.10
2023-07-19T05:08:39.814Z,97.80
2023-07-19T05:11:08.548Z,97.50
2023-07-19T05:13:37.260Z,97.60
2023-07-19T05:16:06.547Z,97.10
2023-07-19T05:18:35.288Z,96.60
2023-07-19T05:21:06.277Z,96.00
2023-07-19T05:23:35.205Z,95.00
2023-07-19T05:26:04.163Z,94.10
2023-07-19T05:28:32.969Z,93.30
2023-07-19T05:31:04.821Z,93.10
2023-07-19T05:33:35.485Z,92.60
2023-07-19T05:36:05.978Z,92.00
2023-07-19T05:38:34.890Z,91.30
2023-07-19T05:41:04.341Z,90.50
2023-07-19T05:43:35.232Z,89.70
2023-07-19T05:46:07.966Z,87.90
2023-07-19T05:48:37.594Z,86.40
2023-07-19T05:51:08.634Z,84.30
2023-07-19T05:53:37.341Z,83.20
2023-07-19T05:56:06.493Z,81.70
2023-07-19T05:58:35.374Z,80.90
2023-07-19T06:01:09.191Z,80.40
2023-07-19T06:03:38.413Z,79.80
2023-07-19T06:06:08.638Z,79.40
2023-07-19T06:08:38.612Z,79.20
2023-07-19T06:11:07.625Z,78.70
2023-07-19T06:13:36.523Z,78.20
2023-07-19T06:16:05.454Z,77.90
2023-07-19T06:18:34.246Z,77.70
2023-07-19T06:21:02.912Z,77.70
2023-07-19T06:23:33.497Z,77.70
2023-07-19T06:26:05.922Z,77.70
2023-07-19T06:28:36.478Z,78.10
2023-07-19T06:31:05.531Z,78.60
2023-07-19T06:33:34.366Z,78.50
2023-07-19T06:36:03.259Z,78.50
2023-07-19T06:38:33.905Z,78.20
2023-07-19T06:41:06.386Z,78.60
2023-07-19T06:43:35.506Z,78.50
2023-07-19T06:46:09.546Z,78.50
2023-07-19T06:48:39.961Z,78.70
2023-07-19T06:51:09.042Z,78.90
2023-07-19T06:53:41.144Z,78.90
2023-07-19T06:56:10.449Z,77.70
2023-07-19T06:58:39.314Z,77.40
2023-07-19T07:01:08.315Z,77.90
2023-07-19T07:03:37.094Z,77.40
2023-07-19T07:06:06.144Z,77.90
2023-07-19T07:08:35.985Z,78.20
2023-07-19T07:11:06.427Z,77.70
2023-07-19T07:13:35.277Z,77.40
2023-07-19T07:16:04.275Z,76.80
2023-07-19T07:18:33.148Z,76.50
2023-07-19T07:21:02.119Z,76.20
2023-07-19T07:23:31.038Z,76.30
2023-07-19T07:26:00.030Z,76.60
2023-07-19T07:28:30.578Z,76.90
2023-07-19T07:30:59.394Z,77.20
2023-07-19T07:33:28.199Z,77.00
2023-07-19T07:35:56.993Z,77.10
2023-07-19T07:38:25.934Z,77.10
2023-07-19T07:41:00.247Z,77.30
2023-07-19T07:43:31.573Z,77.50
2023-07-19T07:46:00.734Z,78.00
2023-07-19T07:48:29.813Z,78.10
2023-07-19T07:50:58.913Z,78.40
2023-07-19T07:53:28.074Z,78.90
2023-07-19T07:55:57.295Z,79.30
2023-07-19T07:58:26.309Z,79.50
2023-07-19T08:00:56.773Z,79.20
2023-07-19T08:03:25.723Z,79.90
2023-07-19T08:05:55.495Z,79.50
2023-07-19T08:08:24.296Z,79.60
2023-07-19T08:10:53.382Z,79.50
2023-07-19T08:13:22.227Z,79.70
2023-07-19T08:15:51.116Z,79.50
2023-07-19T08:18:21.470Z,79.20
2023-07-19T08:20:52.107Z,79.20
2023-07-19T08:23:21.165Z,78.70
2023-07-19T08:25:50.152Z,79.00
2023-07-19T08:28:19.080Z,79.10
2023-07-19T08:30:47.786Z,79.00
2023-07-19T08:33:16.798Z,79.10
2023-07-19T08:35:46.990Z,78.40
2023-07-19T08:38:16.695Z,78.30
2023-07-19T08:40:55.722Z,77.90
2023-07-19T08:43:29.314Z,77.50
2023-07-19T08:46:00.685Z,77.20
2023-07-19T08:48:33.462Z,77.00
2023-07-19T08:51:04.249Z,76.50
2023-07-19T08:53:33.359Z,75.40
2023-07-19T08:56:02.430Z,75.80
2023-07-19T08:58:31.375Z,73.70
2023-07-19T09:01:00.242Z,72.70
2023-07-19T09:03:29.144Z,72.10
2023-07-19T09:05:58.129Z,72.00
2023-07-19T09:08:39.261Z,71.10
2023-07-19T09:11:08.914Z,71.00
2023-07-19T09:13:40.121Z,71.20
2023-07-19T09:16:09.396Z,70.10
2023-07-19T09:18:39.832Z,69.10
2023-07-19T09:21:09.253Z,69.30
2023-07-19T09:23:40.025Z,68.90
2023-07-19T09:26:09.218Z,68.20
2023-07-19T09:28:38.432Z,68.00
2023-07-19T09:31:23.917Z,67.20
2023-07-19T09:33:57.339Z,67.10
2023-07-19T09:36:30.795Z,66.60
2023-07-19T09:39:01.462Z,67.50
2023-07-19T09:41:30.507Z,68.00
2023-07-19T09:43:59.588Z,68.50
2023-07-19T09:46:28.482Z,68.40
2023-07-19T09:48:57.388Z,67.80
2023-07-19T09:51:26.620Z,68.10
2023-07-19T09:53:56.398Z,68.20
2023-07-19T09:56:26.690Z,68.20
2023-07-19T09:58:56.491Z,67.80
2023-07-19T10:01:25.993Z,67.50
2023-07-19T10:03:54.897Z,67.50
2023-07-19T10:06:30.995Z,67.00
2023-07-19T10:09:33.627Z,64.10
2023-07-19T10:12:08.637Z,65.00
2023-07-19T10:14:37.592Z,65.80
2023-07-19T10:17:08.900Z,65.10
2023-07-19T10:19:37.862Z,64.60
2023-07-19T10:22:09.278Z,64.30
2023-07-19T10:24:39.372Z,64.90
2023-07-19T10:27:11.354Z,63.60
2023-07-19T10:29:43.802Z,62.00
2023-07-19T10:32:13.466Z,59.50
2023-07-19T10:34:46.635Z,59.20
2023-07-19T10:37:15.622Z,58.10
2023-07-19T10:39:44.499Z,57.00
2023-07-19T10:42:14.751Z,57.70
2023-07-19T10:44:43.539Z,57.90
2023-07-19T10:47:16.356Z,57.30
2023-07-19T10:49:45.396Z,56.50
2023-07-19T10:52:14.877Z,56.60
2023-07-19T10:55:05.604Z,57.50
2023-07-19T10:57:40.287Z,57.60
2023-07-19T11:00:16.524Z,56.20
2023-07-19T11:02:46.588Z,56.40
2023-07-19T11:05:16.583Z,57.20
2023-07-19T11:07:45.383Z,57.30
2023-07-19T11:10:14.321Z,55.80
2023-07-19T11:12:44.666Z,56.00
2023-07-19T11:15:13.544Z,56.30
2023-07-19T11:17:42.410Z,56.40
2023-07-19T11:20:13.452Z,56.30
2023-07-19T11:22:42.247Z,55.70
2023-07-19T11:25:15.860Z,55.60
2023-07-19T11:27:51.047Z,56.10
2023-07-19T11:30:19.888Z,57.00
2023-07-19T11:33:04.266Z,57.20
2023-07-19T11:35:33.448Z,57.00
2023-07-19T11:38:02.382Z,56.80
2023-07-19T11:40:31.335Z,53.70
2023-07-19T11:43:01.738Z,53.20
2023-07-19T11:45:32.424Z,54.10
2023-07-19T11:48:03.202Z,54.30
2023-07-19T11:50:32.097Z,54.60
2023-07-19T11:53:03.288Z,52.00
2023-07-19T11:55:32.895Z,51.70
2023-07-19T11:58:05.006Z,52.50
2023-07-19T12:00:35.060Z,48.30
2023-07-19T12:03:05.010Z,50.20
2023-07-19T12:05:35.616Z,50.70
2023-07-19T12:08:07.219Z,49.30
2023-07-19T12:10:36.246Z,48.40
2023-07-19T12:13:06.553Z,48.60
2023-07-19T12:15:35.394Z,47.30
2023-07-19T12:18:04.341Z,48.10
2023-07-19T12:20:33.112Z,48.20
2023-07-19T12:23:01.984Z,47.60
2023-07-19T12:25:30.889Z,48.30
2023-07-19T12:27:59.732Z,47.10
2023-07-19T12:30:30.000Z,46.70
2023-07-19T12:32:58.612Z,46.70
2023-07-19T12:35:28.350Z,46.90
2023-07-19T12:37:57.049Z,47.40
2023-07-19T12:40:26.051Z,47.40
2023-07-19T12:42:55.007Z,47.10
2023-07-19T12:45:24.546Z,47.20
2023-07-19T12:47:54.766Z,48.20
2023-07-19T12:50:24.050Z,47.60
2023-07-19T12:52:53.142Z,48.10
2023-07-19T12:55:22.289Z,47.80
2023-07-19T12:57:51.173Z,46.90
2023-07-19T13:00:20.824Z,47.20
2023-07-19T13:02:50.213Z,47.60
2023-07-19T13:05:20.942Z,47.40
2023-07-19T13:07:50.391Z,47.00
2023-07-19T13:10:19.403Z,47.80
2023-07-19T13:12:50.033Z,48.10
2023-07-19T13:15:18.767Z,47.70
2023-07-19T13:17:47.708Z,46.30
2023-07-19T13:20:16.622Z,46.30
2023-07-19T13:22:47.032Z,47.00
2023-07-19T13:25:15.842Z,47.50
2023-07-19T13:27:44.807Z,47.90
2023-07-19T13:30:14.179Z,47.30
2023-07-19T13:32:43.210Z,47.10
2023-07-19T13:35:14.633Z,46.40
2023-07-19T13:40:25.626Z,46.30
2023-07-19T13:42:57.139Z,46.80
2023-07-19T13:45:26.344Z,46.80
2023-07-19T13:47:55.317Z,45.90
2023-07-19T13:50:24.086Z,46.30
2023-07-19T13:52:52.822Z,46.50
2023-07-19T13:55:21.608Z,46.80
2023-07-19T13:57:51.629Z,46.00
2023-07-19T14:00:20.711Z,45.60
2023-07-19T14:02:49.452Z,45.40
2023-07-19T14:05:18.382Z,45.80
2023-07-19T14:07:47.274Z,46.20
2023-07-19T14:10:16.210Z,46.40
2023-07-19T14:12:45.107Z,46.70
2023-07-19T14:15:15.378Z,46.80
2023-07-19T14:17:44.091Z,46.90
2023-07-19T14:20:15.543Z,47.20
2023-07-19T14:22:45.485Z,47.40
2023-07-19T14:25:14.056Z,47.40
2023-07-19T14:27:42.900Z,48.00
2023-07-19T14:30:12.119Z,48.40
2023-07-19T14:32:42.313Z,49.20
2023-07-19T14:35:11.554Z,49.70
2023-07-19T14:37:40.294Z,50.30
2023-07-19T14:40:10.298Z,50.60
2023-07-19T14:42:39.036Z,51.50
2023-07-19T14:45:08.919Z,50.80
2023-07-19T14:47:38.864Z,51.20
2023-07-19T14:50:10.903Z,51.80
2023-07-19T14:55:11.660Z,68.00
2023-07-19T14:57:40.410Z,72.30
2023-07-19T15:00:14.127Z,75.10
2023-07-19T15:02:43.520Z,76.60
2023-07-19T15:05:13.882Z,78.40
2023-07-19T15:07:44.814Z,78.90
2023-07-19T15:10:15.069Z,78.70
2023-07-19T15:12:44.520Z,80.00
2023-07-19T15:15:14.013Z,79.90
2023-07-19T15:17:43.069Z,79.70
2023-07-19T15:20:13.971Z,78.70
2023-07-19T15:22:43.216Z,78.40
2023-07-19T15:25:13.995Z,77.80
2023-07-19T15:27:44.408Z,77.00
2023-07-19T15:30:13.833Z,76.80
2023-07-19T15:32:43.196Z,76.20
2023-07-19T15:35:13.898Z,74.90
2023-07-19T15:37:42.665Z,73.10
2023-07-19T15:40:12.519Z,71.60
2023-07-19T15:42:41.409Z,70.80
2023-07-19T15:45:12.420Z,67.70
2023-07-19T15:47:41.716Z,67.40
2023-07-19T15:50:13.733Z,67.10
2023-07-19T15:52:45.845Z,66.40
2023-07-19T15:55:14.533Z,66.90
2023-07-19T15:57:44.063Z,67.50
2023-07-19T16:00:13.886Z,67.90
2023-07-19T16:02:42.793Z,67.80
2023-07-19T16:05:11.506Z,67.80
2023-07-19T16:07:40.290Z,67.70
2023-07-19T16:10:11.194Z,66.50
2023-07-19T16:12:40.150Z,64.00
2023-07-19T16:15:10.054Z,64.80
2023-07-19T16:17:39.454Z,65.20
2023-07-19T16:20:10.146Z,63.90
2023-07-19T16:22:39.069Z,64.40
2023-07-19T16:25:11.300Z,64.20
2023-07-19T16:27:40.092Z,63.00
2023-07-19T16:30:09.904Z,63.70
2023-07-19T16:32:38.585Z,63.90
2023-07-19T16:35:08.697Z,64.50
2023-07-19T16:37:37.318Z,65.50
2023-07-19T16:40:06.623Z,66.30
2023-07-19T16:42:36.892Z,67.30
2023-07-19T16:45:08.205Z,68.30
2023-07-19T16:47:38.312Z,69.00
2023-07-19T16:50:11.401Z,69.10
2023-07-19T16:52:45.039Z,70.00
2023-07-19T16:55:13.837Z,70.10
2023-07-19T16:57:45.842Z,71.10
2023-07-19T17:00:17.657Z,71.40
2023-07-19T17:02:48.251Z,72.00
2023-07-19T17:05:17.429Z,77.30
2023-07-19T17:07:46.409Z,80.60
2023-07-19T17:10:15.240Z,84.10
2023-07-19T17:12:45.667Z,87.40
2023-07-19T17:15:14.493Z,88.50
2023-07-19T17:17:43.211Z,90.00
2023-07-19T17:20:12.974Z,91.10
2023-07-19T17:22:42.827Z,92.10
2023-07-19T17:25:11.630Z,92.80
2023-07-19T17:27:40.292Z,93.50
2023-07-19T17:30:12.579Z,94.50
2023-07-19T17:32:47.495Z,95.10
2023-07-19T17:35:18.738Z,95.70
2023-07-19T17:37:48.822Z,96.50
2023-07-19T17:40:17.716Z,98.80
2023-07-19T17:42:46.547Z,99.90
2023-07-19T17:45:16.736Z,99.90
2023-07-19T17:47:45.674Z,99.90
2023-07-19T17:50:14.777Z,99.90
2023-07-19T17:52:46.750Z,99.90
2023-07-19T17:55:16.423Z,99.90
2023-07-19T17:57:45.509Z,99.90
2023-07-19T18:00:17.072Z,99.90
2023-07-19T18:02:46.233Z,99.90
2023-07-19T18:05:15.246Z,99.90
2023-07-19T18:07:44.032Z,99.90
2023-07-19T18:10:12.812Z,99.90
2023-07-19T18:12:41.700Z,99.90
2023-07-19T18:15:11.483Z,99.90
2023-07-19T18:17:41.829Z,99.90
2023-07-19T18:20:11.593Z,99.90
2023-07-19T18:22:40.785Z,99.90
2023-07-19T18:25:10.082Z,99.90
2023-07-19T18:27:39.777Z,99.90
2023-07-19T18:30:09.889Z,99.90
2023-07-19T18:32:38.741Z,99.90
2023-07-19T18:35:09.837Z,99.90
2023-07-19T18:37:39.120Z,99.90
2023-07-19T18:40:08.882Z,99.90
2023-07-19T18:42:37.763Z,99.90
2023-07-19T18:45:07.435Z,99.90
2023-07-19T18:47:37.317Z,99.90
2023-07-19T18:50:06.730Z,99.90
2023-07-19T18:52:36.754Z,99.90
2023-07-19T18:55:06.167Z,99.90
2023-07-19T18:57:34.990Z,99.90
2023-07-19T19:00:03.734Z,99.90
2023-07-19T19:02:32.509Z,99.90
2023-07-19T19:05:01.249Z,99.90
2023-07-19T19:07:30.078Z,99.90
2023-07-19T19:10:01.702Z,99.90
2023-07-19T19:12:30.515Z,99.90
2023-07-19T19:14:59.747Z,99.90
2023-07-19T19:17:28.575Z,99.90
2023-07-19T19:19:57.851Z,99.90
2023-07-19T19:22:27.038Z,99.90
2023-07-19T19:24:55.755Z,99.90
2023-07-19T19:27:26.022Z,99.90
2023-07-19T19:29:54.824Z,99.90
2023-07-19T19:32:25.937Z,99.90
2023-07-19T19:34:55.055Z,99.90
2023-07-19T19:37:24.083Z,99.90
2023-07-19T19:39:54.374Z,99.90
2023-07-19T19:42:23.216Z,99.90
2023-07-19T19:44:54.637Z,99.90
2023-07-19T19:47:23.533Z,99.90
2023-07-19T19:49:52.512Z,99.90
2023-07-19T19:52:21.325Z,99.90
2023-07-19T19:54:50.540Z,99.90
2023-07-19T19:57:19.600Z,99.90
2023-07-19T19:59:50.307Z,99.90
2023-07-19T20:04:53.160Z,99.90
2023-07-19T20:07:22.308Z,99.90
2023-07-19T20:10:00.746Z,99.90
2023-07-19T20:12:31.104Z,99.90
2023-07-19T20:14:59.943Z,99.90
2023-07-19T20:17:30.294Z,99.90
2023-07-19T20:20:08.052Z,99.90
2023-07-19T20:22:37.901Z,99.90
2023-07-19T20:25:22.850Z,99.90
2023-07-19T20:28:01.663Z,99.90
2023-07-19T20:30:31.110Z,99.90
2023-07-19T20:33:01.639Z,99.90
2023-07-19T20:43:05.664Z,99.90
2023-07-19T20:45:34.414Z,99.90
2023-07-19T20:48:05.119Z,99.90
2023-07-19T20:50:34.009Z,99.90
2023-07-19T20:53:02.948Z,99.90
2023-07-19T20:55:33.215Z,99.90
2023-07-19T20:58:02.169Z,99.90
2023-07-19T21:00:30.930Z,99.90
2023-07-19T21:02:59.796Z,99.90
2023-07-19T21:05:30.454Z,99.90
2023-07-19T21:07:59.148Z,99.90
2023-07-19T21:10:28.658Z,99.90
2023-07-19T21:12:57.851Z,99.90
2023-07-19T21:15:26.724Z,99.90
2023-07-19T21:17:56.304Z,99.90
2023-07-19T21:20:25.755Z,99.90
2023-07-19T21:22:57.677Z,99.90
2023-07-19T21:25:27.233Z,99.90
2023-07-19T21:27:55.947Z,99.90
2023-07-19T21:30:24.782Z,99.90
2023-07-19T21:32:53.765Z,99.90
2023-07-19T21:35:22.563Z,99.90
2023-07-19T21:37:51.242Z,99.90
2023-07-19T21:40:21.886Z,99.90
2023-07-19T21:42:50.928Z,99.90
2023-07-19T21:45:19.720Z,99.90
2023-07-19T21:47:51.129Z,99.90
2023-07-19T21:50:20.175Z,99.90
2023-07-19T21:52:49.068Z,99.90
2023-07-19T21:55:18.041Z,99.90
2023-07-19T21:57:48.330Z,99.90
2023-07-19T22:00:17.681Z,99.90
2023-07-19T22:02:49.106Z,99.90
2023-07-19T22:05:19.125Z,99.90
2023-07-19T22:07:48.981Z,99.90
2023-07-19T22:10:18.044Z,99.90
2023-07-19T22:12:48.472Z,99.90
2023-07-19T22:15:18.174Z,99.90
2023-07-19T22:17:49.004Z,99.90
2023-07-19T22:20:18.453Z,99.90
2023-07-19T22:22:47.435Z,99.90
2023-07-19T22:25:16.352Z,99.90
2023-07-19T22:27:45.123Z,99.90
2023-07-19T22:30:16.228Z,99.90
2023-07-19T22:32:44.994Z,99.90
2023-07-19T22:35:13.733Z,99.90
2023-07-19T22:37:44.075Z,99.90
2023-07-19T22:40:14.433Z,99.90
2023-07-19T22:42:43.244Z,99.90
2023-07-19T22:45:12.313Z,99.90
2023-07-19T22:47:42.628Z,99.90
2023-07-19T22:50:11.983Z,99.90
2023-07-19T22:52:42.925Z,99.90
2023-07-19T22:55:11.822Z,99.90
2023-07-19T22:57:40.845Z,99.90
2023-07-19T23:00:10.973Z,99.90
2023-07-19T23:02:41.401Z,99.90
2023-07-19T23:05:10.867Z,99.90
2023-07-19T23:07:39.859Z,99.90
2023-07-19T23:10:09.381Z,99.90
2023-07-19T23:12:38.444Z,99.90
2023-07-19T23:15:09.211Z,99.90
2023-07-19T23:17:38.413Z,99.90
2023-07-19T23:20:12.084Z,99.90
2023-07-19T23:22:41.298Z,99.90
2023-07-19T23:25:14.205Z,99.90
2023-07-19T23:27:43.669Z,99.90
2023-07-19T23:30:13.805Z,99.90
2023-07-19T23:32:42.576Z,99.90
2023-07-19T23:35:13.224Z,99.90
2023-07-19T23:37:42.065Z,99.90
2023-07-19T23:40:11.816Z,99.90
2023-07-19T23:42:40.609Z,99.90
2023-07-19T23:45:10.619Z,99.90
2023-07-19T23:47:39.322Z,99.90
2023-07-19T23:50:09.412Z,99.90
2023-07-19T23:52:39.793Z,99.90
2023-07-19T23:55:09.142Z,99.90
2023-07-19T23:57:37.886Z,99.90
